Time;durP1;ratioP1;P1;durP2;ratioP2;P2;SDS_P1;SDS_P2;PMS_P1;PMS_P2;Temp;Humidity;BMP_temperature;BMP_pressure;BME280_temperature;BME280_humidity;BME280_pressure;Samples;Min_cycle;Max_cycle;Signal;HPM_P1;HPM_P2
2023/08/14 00:02:08;;;;;;;6.10;4.13;;;;;;;;;;5052662;28;20036;-74
2023/08/14 00:04:34;;;;;;;8.73;4.95;;;;;;;;;;5052249;28;20404;-75
2023/08/14 00:07:00;;;;;;;11.75;5.30;;;;;;;;;;5051420;28;20091;-75
2023/08/14 00:09:26;;;;;;;13.50;5.35;;;;;;;;;;5052209;28;20025;-75
2023/08/14 00:11:52;;;;;;;9.13;5.30;;;;;;;;;;5052185;28;20060;-75
2023/08/14 00:14:19;;;;;;;9.15;5.18;;;;;;;;;;5052216;28;20029;-75
2023/08/14 00:16:45;;;;;;;9.20;5.75;;;;;;;;;;5052224;28;20651;-75
2023/08/14 00:19:11;;;;;;;8.93;5.13;;;;;;;;;;5052274;28;20021;-74
2023/08/14 00:21:37;;;;;;;10.65;5.45;;;;;;;;;;5052089;28;20028;-75
2023/08/14 00:24:03;;;;;;;9.35;5.53;;;;;;;;;;5052068;28;20044;-74
2023/08/14 00:26:29;;;;;;;9.90;5.50;;;;;;;;;;5051835;28;20033;-75
2023/08/14 00:28:55;;;;;;;12.02;5.30;;;;;;;;;;5052019;28;20032;-75
2023/08/14 00:31:20;;;;;;;8.30;5.15;;;;;;;;;;5051292;28;20388;-75
2023/08/14 00:33:47;;;;;;;9.35;5.90;;;;;;;;;;5051881;28;20085;-74
2023/08/14 00:36:13;;;;;;;11.02;5.57;;;;;;;;;;5051960;28;20464;-75
2023/08/14 00:38:39;;;;;;;9.10;6.00;;;;;;;;;;5051775;28;20059;-75
2023/08/14 00:41:05;;;;;;;9.98;6.13;;;;;;;;;;5051720;28;20379;-75
2023/08/14 00:43:31;;;;;;;8.18;5.47;;;;;;;;;;5051660;28;20025;-75
2023/08/14 00:45:57;;;;;;;8.95;5.47;;;;;;;;;;5051650;28;20028;-75
2023/08/14 00:48:24;;;;;;;9.13;6.13;;;;;;;;;;5051685;28;20025;-74
2023/08/14 00:50:50;;;;;;;8.88;5.97;;;;;;;;;;5051658;28;20024;-75
2023/08/14 00:53:18;;;;;;;12.20;6.35;;;;;;;;;;5051749;28;20021;-75
2023/08/14 00:55:45;;;;;;;11.80;6.38;;;;;;;;;;5051635;28;20075;-75
2023/08/14 00:58:12;;;;;;;10.40;6.20;;;;;;;;;;5051802;28;20086;-75
2023/08/14 01:00:38;;;;;;;13.57;6.68;;;;;;;;;;5051601;28;20024;-75
2023/08/14 01:03:04;;;;;;;11.40;6.50;;;;;;;;;;5051829;28;20044;-74
2023/08/14 01:05:31;;;;;;;9.15;6.28;;;;;;;;;;5051216;28;20444;-75
2023/08/14 01:07:57;;;;;;;11.23;6.55;;;;;;;;;;5051531;28;20045;-75
2023/08/14 01:10:24;;;;;;;11.20;6.13;;;;;;;;;;5051577;28;20029;-75
2023/08/14 01:13:00;;;;;;;9.35;5.28;;;;;;;;;;5051295;28;20082;-75
2023/08/14 01:15:27;;;;;;;10.60;6.20;;;;;;;;;;5051431;28;20487;-75
2023/08/14 01:17:56;;;;;;;10.98;5.55;;;;;;;;;;5051594;28;20032;-75
2023/08/14 01:20:22;;;;;;;9.45;5.43;;;;;;;;;;5055142;28;20029;-75
2023/08/14 01:22:48;;;;;;;14.70;5.68;;;;;;;;;;5055414;28;20450;-75
2023/08/14 01:25:20;;;;;;;13.80;6.40;;;;;;;;;;5055532;28;20033;-75
2023/08/14 01:27:47;;;;;;;12.93;5.85;;;;;;;;;;5055666;28;20033;-75
2023/08/14 01:30:13;;;;;;;11.00;5.82;;;;;;;;;;5054981;28;20021;-75
2023/08/14 01:32:39;;;;;;;10.57;5.97;;;;;;;;;;5055354;28;20036;-74
2023/08/14 01:35:05;;;;;;;8.98;5.57;;;;;;;;;;5055128;28;20464;-75
2023/08/14 01:37:34;;;;;;;10.20;6.03;;;;;;;;;;5055126;28;20013;-75
2023/08/14 01:40:08;;;;;;;9.35;6.40;;;;;;;;;;5055098;28;20029;-75
2023/08/14 01:42:36;;;;;;;13.02;6.05;;;;;;;;;;5055313;28;20047;-75
2023/08/14 01:45:06;;;;;;;9.68;6.57;;;;;;;;;;5054944;28;20029;-75
2023/08/14 01:47:33;;;;;;;8.57;5.95;;;;;;;;;;5054769;28;20032;-75
2023/08/14 01:50:00;;;;;;;9.98;5.57;;;;;;;;;;5055014;28;20472;-75
2023/08/14 01:52:26;;;;;;;10.20;5.50;;;;;;;;;;5054953;28;20045;-74
2023/08/14 01:54:52;;;;;;;14.15;6.43;;;;;;;;;;5054835;28;20506;-75
2023/08/14 01:57:18;;;;;;;11.30;5.68;;;;;;;;;;5054748;28;20021;-75
2023/08/14 01:59:46;;;;;;;10.63;5.80;;;;;;;;;;5054804;28;20025;-75
2023/08/14 02:02:12;;;;;;;10.50;5.40;;;;;;;;;;5054584;28;20021;-75
2023/08/14 02:04:39;;;;;;;10.15;6.35;;;;;;;;;;5054623;28;20087;-75
2023/08/14 02:07:11;;;;;;;9.48;6.05;;;;;;;;;;5054800;28;20029;-75
2023/08/14 02:09:37;;;;;;;9.48;5.30;;;;;;;;;;5054737;28;20025;-75
2023/08/14 02:12:03;;;;;;;10.05;4.90;;;;;;;;;;5054432;28;20040;-75
2023/08/14 02:14:29;;;;;;;16.25;5.70;;;;;;;;;;5054172;28;20021;-75
2023/08/14 02:16:55;;;;;;;14.32;6.57;;;;;;;;;;5054972;28;20063;-75
2023/08/14 02:19:21;;;;;;;10.27;5.25;;;;;;;;;;5054156;28;20400;-75
2023/08/14 02:21:48;;;;;;;9.73;5.50;;;;;;;;;;5054578;28;20029;-75
2023/08/14 02:24:14;;;;;;;10.35;5.47;;;;;;;;;;5052586;28;20552;-75
2023/08/14 02:26:40;;;;;;;13.05;5.13;;;;;;;;;;5046729;28;20487;-75
2023/08/14 02:29:06;;;;;;;9.60;5.15;;;;;;;;;;5054024;28;20025;-75
2023/08/14 02:31:32;;;;;;;11.82;5.20;;;;;;;;;;5052994;28;20054;-75
2023/08/14 02:33:59;;;;;;;9.75;5.25;;;;;;;;;;5034275;28;20040;-75
2023/08/14 02:36:26;;;;;;;10.23;4.57;;;;;;;;;;5034187;28;20074;-75
2023/08/14 02:38:53;;;;;;;11.30;5.65;;;;;;;;;;5034207;28;20033;-75
2023/08/14 02:41:19;;;;;;;9.35;4.82;;;;;;;;;;5043486;28;20033;-75
2023/08/14 02:43:45;;;;;;;7.90;4.90;;;;;;;;;;5053741;28;20078;-75
2023/08/14 02:46:11;;;;;;;6.25;4.45;;;;;;;;;;5053941;28;20384;-75
2023/08/14 02:48:37;;;;;;;8.35;4.93;;;;;;;;;;5053777;28;20036;-75
2023/08/14 02:51:03;;;;;;;18.13;4.70;;;;;;;;;;5053630;28;20025;-74
2023/08/14 02:53:29;;;;;;;8.35;5.25;;;;;;;;;;5053633;28;20127;-75
2023/08/14 02:55:57;;;;;;;9.63;5.55;;;;;;;;;;5054094;28;20040;-75
2023/08/14 02:58:23;;;;;;;8.80;4.63;;;;;;;;;;5053465;28;20021;-75
2023/08/14 03:00:49;;;;;;;11.98;4.93;;;;;;;;;;5053897;28;20063;-75
2023/08/14 03:03:16;;;;;;;10.20;5.20;;;;;;;;;;5043641;28;20022;-75
2023/08/14 03:05:42;;;;;;;13.05;4.93;;;;;;;;;;5033490;28;20029;-75
2023/08/14 03:08:08;;;;;;;9.45;4.63;;;;;;;;;;5033948;28;20022;-75
2023/08/14 03:10:34;;;;;;;11.25;5.07;;;;;;;;;;5033420;28;20024;-75
2023/08/14 03:13:03;;;;;;;7.43;4.72;;;;;;;;;;5033476;28;20021;-75
2023/08/14 03:15:29;;;;;;;9.50;4.90;;;;;;;;;;5033342;28;20033;-75
2023/08/14 03:17:55;;;;;;;8.05;4.93;;;;;;;;;;5033813;28;20018;-75
2023/08/14 03:20:21;;;;;;;9.55;5.03;;;;;;;;;;5033380;28;20552;-74
2023/08/14 03:22:47;;;;;;;10.18;5.10;;;;;;;;;;5033230;28;20083;-75
2023/08/14 03:25:13;;;;;;;7.88;4.45;;;;;;;;;;5033220;28;20415;-75
2023/08/14 03:27:40;;;;;;;9.55;5.35;;;;;;;;;;5033283;28;20117;-75
2023/08/14 03:30:06;;;;;;;11.00;5.40;;;;;;;;;;5037286;28;20041;-75
2023/08/14 03:32:32;;;;;;;9.95;5.07;;;;;;;;;;5043271;28;20040;-75
2023/08/14 03:34:58;;;;;;;10.52;5.90;;;;;;;;;;5033081;28;20456;-75
2023/08/14 03:37:24;;;;;;;11.05;5.03;;;;;;;;;;5033244;28;20060;-75
2023/08/14 03:39:50;;;;;;;11.90;5.72;;;;;;;;;;5048124;28;20049;-75
2023/08/14 03:42:16;;;;;;;12.07;5.50;;;;;;;;;;5033055;28;20104;-74
2023/08/14 03:44:42;;;;;;;16.45;6.53;;;;;;;;;;5035660;28;20028;-75
2023/08/14 03:47:08;;;;;;;9.70;5.22;;;;;;;;;;5052672;28;20033;-75
2023/08/14 03:49:34;;;;;;;10.95;5.30;;;;;;;;;;5052591;28;20052;-75
2023/08/14 03:52:00;;;;;;;9.45;5.50;;;;;;;;;;5052631;28;20060;-75
2023/08/14 03:54:26;;;;;;;10.57;5.72;;;;;;;;;;5052290;28;20028;-75
2023/08/14 03:56:52;;;;;;;12.73;5.78;;;;;;;;;;5052698;28;20623;-75
2023/08/14 03:59:18;;;;;;;8.88;5.15;;;;;;;;;;5052456;28;20104;-75
2023/08/14 04:01:44;;;;;;;12.15;5.47;;;;;;;;;;5052250;28;20505;-75
2023/08/14 04:04:10;;;;;;;9.52;5.15;;;;;;;;;;5052383;28;20057;-75
2023/08/14 04:06:37;;;;;;;8.65;5.28;;;;;;;;;;5052013;28;20460;-75
2023/08/14 04:09:03;;;;;;;8.27;5.30;;;;;;;;;;5052134;28;20021;-75
2023/08/14 04:11:30;;;;;;;10.43;5.03;;;;;;;;;;5052247;28;20025;-75
2023/08/14 04:13:56;;;;;;;8.98;5.32;;;;;;;;;;5052473;28;20028;-75
2023/08/14 04:16:22;;;;;;;16.38;5.30;;;;;;;;;;5052474;28;20021;-75
2023/08/14 04:18:48;;;;;;;10.85;5.18;;;;;;;;;;5052526;28;20025;-75
2023/08/14 04:21:14;;;;;;;12.63;5.28;;;;;;;;;;5052267;28;20068;-75
2023/08/14 04:23:40;;;;;;;10.13;5.38;;;;;;;;;;5034389;28;20053;-75
2023/08/14 04:26:06;;;;;;;9.15;5.03;;;;;;;;;;5032182;28;20033;-75
2023/08/14 04:28:32;;;;;;;9.27;6.28;;;;;;;;;;5032094;28;20064;-75
2023/08/14 04:30:58;;;;;;;9.20;5.20;;;;;;;;;;5039862;28;20564;-75
2023/08/14 04:33:25;;;;;;;7.75;5.20;;;;;;;;;;5049048;28;20025;-75
2023/08/14 04:35:52;;;;;;;7.88;5.45;;;;;;;;;;5051964;28;20040;-76
2023/08/14 04:38:18;;;;;;;8.88;5.38;;;;;;;;;;5050253;28;20607;-75
2023/08/14 04:40:44;;;;;;;9.60;5.38;;;;;;;;;;5051721;28;20353;-75
2023/08/14 04:43:10;;;;;;;11.95;5.25;;;;;;;;;;5051706;28;20064;-75
2023/08/14 04:45:36;;;;;;;10.68;5.50;;;;;;;;;;5032227;28;20075;-75
2023/08/14 04:48:02;;;;;;;9.02;4.90;;;;;;;;;;5031724;28;20534;-76
2023/08/14 04:50:28;;;;;;;11.10;5.47;;;;;;;;;;5031680;28;20025;-75
2023/08/14 04:52:54;;;;;;;8.63;5.50;;;;;;;;;;5043862;28;20025;-75
2023/08/14 04:55:23;;;;;;;9.68;4.95;;;;;;;;;;5051389;28;20047;-76
2023/08/14 04:57:49;;;;;;;8.48;5.28;;;;;;;;;;5051286;28;20380;-76
2023/08/14 05:00:16;;;;;;;9.02;5.70;;;;;;;;;;5051794;28;20021;-76
2023/08/14 05:02:42;;;;;;;8.82;5.15;;;;;;;;;;5051479;28;20365;-75
2023/08/14 05:05:08;;;;;;;11.65;5.28;;;;;;;;;;5049719;28;20039;-75
2023/08/14 05:07:34;;;;;;;9.68;5.80;;;;;;;;;;5051465;28;20032;-76
2023/08/14 05:10:00;;;;;;;9.73;5.70;;;;;;;;;;5051336;28;20033;-75
2023/08/14 05:12:26;;;;;;;11.27;5.22;;;;;;;;;;5051370;28;20025;-76
2023/08/14 05:14:53;;;;;;;11.18;5.75;;;;;;;;;;5051596;28;20032;-75
2023/08/14 05:17:19;;;;;;;12.55;5.82;;;;;;;;;;5051303;28;20132;-75
2023/08/14 05:19:45;;;;;;;12.65;6.50;;;;;;;;;;5051677;28;20021;-75
2023/08/14 05:22:11;;;;;;;10.00;5.57;;;;;;;;;;5051331;28;20022;-76
2023/08/14 05:24:38;;;;;;;8.63;5.53;;;;;;;;;;5050950;28;20743;-76
2023/08/14 05:27:04;;;;;;;8.77;5.70;;;;;;;;;;5042245;28;20681;-75
2023/08/14 05:29:30;;;;;;;11.05;6.07;;;;;;;;;;5031409;28;20068;-76
2023/08/14 05:31:57;;;;;;;7.55;5.68;;;;;;;;;;5030939;28;20065;-75
2023/08/14 05:34:23;;;;;;;10.15;5.82;;;;;;;;;;5043271;28;20024;-75
2023/08/14 05:36:49;;;;;;;11.30;6.03;;;;;;;;;;5051388;28;20028;-76
2023/08/14 05:39:18;;;;;;;9.38;6.13;;;;;;;;;;5050677;28;20117;-76
2023/08/14 05:41:44;;;;;;;7.97;5.65;;;;;;;;;;5050193;28;20108;-75
2023/08/14 05:44:10;;;;;;;10.45;5.70;;;;;;;;;;5050937;28;20108;-76
2023/08/14 05:46:36;;;;;;;10.77;5.65;;;;;;;;;;5050699;28;20044;-75
2023/08/14 05:49:02;;;;;;;11.35;6.18;;;;;;;;;;5050742;28;20029;-76
2023/08/14 05:51:28;;;;;;;9.50;5.90;;;;;;;;;;5050998;28;20388;-75
2023/08/14 05:53:54;;;;;;;9.15;5.97;;;;;;;;;;5050787;28;20082;-75
2023/08/14 05:56:20;;;;;;;8.85;5.35;;;;;;;;;;5050774;28;20025;-76
2023/08/14 05:58:46;;;;;;;10.85;6.18;;;;;;;;;;5050863;28;20353;-75
2023/08/14 06:01:12;;;;;;;11.77;5.57;;;;;;;;;;5051265;28;20021;-75
2023/08/14 06:03:39;;;;;;;7.78;5.50;;;;;;;;;;5051080;28;20029;-76
2023/08/14 06:06:05;;;;;;;12.30;5.95;;;;;;;;;;5052911;28;20025;-75
2023/08/14 06:08:31;;;;;;;9.73;5.70;;;;;;;;;;5054830;28;20025;-76
2023/08/14 06:10:57;;;;;;;9.10;5.78;;;;;;;;;;5054599;28;20049;-75
2023/08/14 06:13:23;;;;;;;8.50;5.32;;;;;;;;;;5054167;28;20118;-76
2023/08/14 06:15:50;;;;;;;7.20;4.82;;;;;;;;;;5054393;28;20056;-76
2023/08/14 06:18:15;;;;;;;9.57;5.47;;;;;;;;;;5054783;28;20032;-75
2023/08/14 06:20:41;;;;;;;10.80;5.32;;;;;;;;;;5054232;28;20028;-75
2023/08/14 06:23:07;;;;;;;9.55;5.45;;;;;;;;;;5054150;28;20380;-76
2023/08/14 06:25:33;;;;;;;6.47;5.55;;;;;;;;;;5054330;28;20108;-75
2023/08/14 06:27:59;;;;;;;6.70;4.85;;;;;;;;;;5054352;28;20151;-76
2023/08/14 06:30:26;;;;;;;8.57;5.28;;;;;;;;;;5053488;28;20100;-76
2023/08/14 06:32:52;;;;;;;9.43;5.43;;;;;;;;;;5054461;28;20018;-76
2023/08/14 06:35:18;;;;;;;8.07;5.00;;;;;;;;;;5054190;28;20056;-75
2023/08/14 06:37:44;;;;;;;8.95;4.90;;;;;;;;;;5054263;28;20028;-76
2023/08/14 06:40:10;;;;;;;5.63;4.50;;;;;;;;;;5054052;28;20488;-76
2023/08/14 06:42:36;;;;;;;9.40;4.82;;;;;;;;;;5054529;28;20047;-76
2023/08/14 06:45:04;;;;;;;8.63;4.70;;;;;;;;;;5053616;28;20817;-76
2023/08/14 06:47:30;;;;;;;7.75;4.65;;;;;;;;;;5054107;28;20029;-75
2023/08/14 06:49:56;;;;;;;6.47;4.65;;;;;;;;;;5053789;28;20029;-76
2023/08/14 06:52:23;;;;;;;8.02;4.65;;;;;;;;;;5053682;28;20090;-76
2023/08/14 06:54:49;;;;;;;6.20;4.40;;;;;;;;;;5053724;28;20045;-76
2023/08/14 06:57:15;;;;;;;6.97;4.72;;;;;;;;;;5053438;28;20067;-76
2023/08/14 06:59:41;;;;;;;5.72;4.43;;;;;;;;;;5053596;28;20105;-76
2023/08/14 07:02:07;;;;;;;8.38;5.07;;;;;;;;;;5053747;28;20025;-76
2023/08/14 07:04:33;;;;;;;7.20;4.80;;;;;;;;;;5053933;28;20099;-75
2023/08/14 07:06:59;;;;;;;5.53;4.13;;;;;;;;;;5054062;28;20033;-75
2023/08/14 07:09:25;;;;;;;6.63;3.92;;;;;;;;;;5053528;28;20025;-75
2023/08/14 07:11:51;;;;;;;8.35;4.10;;;;;;;;;;5053379;28;20033;-75
2023/08/14 07:14:17;;;;;;;5.82;3.90;;;;;;;;;;5053533;28;20031;-74
2023/08/14 07:16:43;;;;;;;4.95;3.75;;;;;;;;;;5053119;28;20087;-75
2023/08/14 07:19:09;;;;;;;5.78;4.00;;;;;;;;;;5053388;28;20395;-75
2023/08/14 07:21:35;;;;;;;5.90;3.85;;;;;;;;;;5040657;28;20021;-76
2023/08/14 07:24:01;;;;;;;5.10;3.83;;;;;;;;;;5053354;28;20029;-76
2023/08/14 07:26:27;;;;;;;6.15;4.00;;;;;;;;;;5053699;28;20025;-76
2023/08/14 07:28:53;;;;;;;7.03;4.00;;;;;;;;;;5053374;28;20431;-76
2023/08/14 07:31:19;;;;;;;6.15;3.80;;;;;;;;;;5053096;28;20044;-76
2023/08/14 07:33:46;;;;;;;9.20;3.60;;;;;;;;;;5033176;28;20033;-76
2023/08/14 07:36:12;;;;;;;4.47;3.25;;;;;;;;;;5033305;28;20021;-76
2023/08/14 07:38:38;;;;;;;5.65;3.00;;;;;;;;;;5033252;28;20021;-76
2023/08/14 07:41:04;;;;;;;3.55;2.40;;;;;;;;;;5033149;28;20025;-76
2023/08/14 07:43:30;;;;;;;3.38;2.38;;;;;;;;;;5053114;28;20021;-76
2023/08/14 07:45:56;;;;;;;3.85;1.98;;;;;;;;;;5052920;28;20478;-77
2023/08/14 07:48:22;;;;;;;4.70;2.00;;;;;;;;;;5052862;28;20116;-76
2023/08/14 07:50:51;;;;;;;4.43;2.30;;;;;;;;;;5052656;28;20101;-76
2023/08/14 07:53:17;;;;;;;4.80;1.90;;;;;;;;;;5052754;28;20039;-77
2023/08/14 07:55:43;;;;;;;2.97;1.35;;;;;;;;;;5052697;28;20419;-78
2023/08/14 07:58:09;;;;;;;6.38;1.38;;;;;;;;;;5053211;28;20025;-77
2023/08/14 08:00:35;;;;;;;3.50;1.95;;;;;;;;;;5052460;28;20456;-77
2023/08/14 08:03:01;;;;;;;3.22;1.63;;;;;;;;;;5051169;28;20035;-77
2023/08/14 08:05:27;;;;;;;3.00;1.90;;;;;;;;;;5052501;28;20031;-77
2023/08/14 08:07:53;;;;;;;4.13;1.65;;;;;;;;;;5052329;28;20044;-77
2023/08/14 08:10:20;;;;;;;5.50;1.52;;;;;;;;;;5052274;28;20032;-76
2023/08/14 08:12:45;;;;;;;2.08;1.60;;;;;;;;;;5052295;28;20031;-77
2023/08/14 08:15:12;;;;;;;3.42;1.27;;;;;;;;;;5052390;28;20033;-76
2023/08/14 08:17:38;;;;;;;2.70;1.38;;;;;;;;;;5052190;28;20101;-76
2023/08/14 08:20:05;;;;;;;2.05;1.00;;;;;;;;;;5051982;28;20108;-76
2023/08/14 08:22:31;;;;;;;7.57;1.40;;;;;;;;;;5052329;28;20017;-76
2023/08/14 08:24:57;;;;;;;3.03;1.10;;;;;;;;;;5052099;28;20392;-76
2023/08/14 08:27:23;;;;;;;3.35;1.08;;;;;;;;;;5051678;28;20036;-76
2023/08/14 08:29:49;;;;;;;2.17;1.30;;;;;;;;;;5051777;28;20056;-75
2023/08/14 08:32:15;;;;;;;6.10;1.38;;;;;;;;;;5044331;28;20086;-76
2023/08/14 08:34:41;;;;;;;2.38;1.17;;;;;;;;;;5046027;28;20056;-76
2023/08/14 08:37:07;;;;;;;2.67;1.42;;;;;;;;;;5051568;28;20056;-76
2023/08/14 08:39:34;;;;;;;3.13;1.77;;;;;;;;;;5051671;28;20361;-76
2023/08/14 08:42:01;;;;;;;4.93;1.58;;;;;;;;;;5051872;28;20025;-75
2023/08/14 08:44:32;;;;;;;2.83;1.70;;;;;;;;;;5051510;28;20033;-74
2023/08/14 08:46:59;;;;;;;4.22;1.80;;;;;;;;;;5052068;28;20040;-74
2023/08/14 08:49:26;;;;;;;2.65;1.75;;;;;;;;;;5049808;28;20392;-74
2023/08/14 08:51:53;;;;;;;2.50;1.80;;;;;;;;;;5051785;28;20029;-74
2023/08/14 08:54:19;;;;;;;4.45;2.45;;;;;;;;;;5051557;28;20021;-74
2023/08/14 08:56:45;;;;;;;4.70;2.33;;;;;;;;;;5051795;28;20048;-74
2023/08/14 08:59:11;;;;;;;4.65;1.75;;;;;;;;;;5051455;28;20028;-74
2023/08/14 09:01:44;;;;;;;3.13;1.60;;;;;;;;;;5051417;28;20036;-75
2023/08/14 09:04:10;;;;;;;2.85;1.85;;;;;;;;;;5051508;28;20028;-75
2023/08/14 09:06:36;;;;;;;2.75;1.27;;;;;;;;;;5045223;28;20486;-75
2023/08/14 09:09:02;;;;;;;2.88;1.30;;;;;;;;;;5044224;28;20056;-75
2023/08/14 09:11:29;;;;;;;4.22;1.25;;;;;;;;;;5051170;28;20036;-75
2023/08/14 09:13:55;;;;;;;4.18;1.50;;;;;;;;;;5051268;28;20025;-75
2023/08/14 09:16:21;;;;;;;1.73;1.17;;;;;;;;;;5051178;28;20060;-76
2023/08/14 09:18:47;;;;;;;3.88;1.30;;;;;;;;;;5051008;28;20021;-75
2023/08/14 09:21:15;;;;;;;5.53;1.40;;;;;;;;;;5051046;28;20025;-75
2023/08/14 09:23:42;;;;;;;3.88;1.25;;;;;;;;;;5049975;28;20099;-76
2023/08/14 09:26:08;;;;;;;3.50;1.10;;;;;;;;;;5049699;28;20056;-75
2023/08/14 09:28:36;;;;;;;2.60;1.20;;;;;;;;;;5050770;28;20032;-75
2023/08/14 09:31:08;;;;;;;2.75;1.20;;;;;;;;;;5049624;28;20052;-75
2023/08/14 09:33:39;;;;;;;6.00;1.63;;;;;;;;;;5049421;28;20036;-75
2023/08/14 09:36:05;;;;;;;2.47;1.15;;;;;;;;;;5047981;28;20026;-75
2023/08/14 09:38:31;;;;;;;3.40;1.70;;;;;;;;;;5050694;28;20064;-75
2023/08/14 09:41:01;;;;;;;5.10;1.75;;;;;;;;;;5054698;28;20025;-75
2023/08/14 09:43:28;;;;;;;5.85;1.80;;;;;;;;;;5055576;28;20401;-76
2023/08/14 09:45:56;;;;;;;4.57;1.40;;;;;;;;;;5054910;28;20025;-75
2023/08/14 09:48:22;;;;;;;2.00;1.10;;;;;;;;;;5055234;28;20028;-75
2023/08/14 09:50:52;;;;;;;2.47;1.50;;;;;;;;;;5054818;28;20464;-75
2023/08/14 09:53:18;;;;;;;3.28;1.20;;;;;;;;;;5054904;28;20039;-75
2023/08/14 09:55:44;;;;;;;1.75;0.93;;;;;;;;;;5048681;28;20028;-75
2023/08/14 09:58:11;;;;;;;3.13;1.13;;;;;;;;;;5034483;28;20101;-75
2023/08/14 10:00:38;;;;;;;2.95;1.30;;;;;;;;;;5034610;28;20025;-75
2023/08/14 10:03:07;;;;;;;2.40;1.08;;;;;;;;;;5048668;28;20498;-76
2023/08/14 10:05:33;;;;;;;3.08;1.25;;;;;;;;;;5054122;28;20021;-75
2023/08/14 10:08:00;;;;;;;2.33;0.95;;;;;;;;;;5054817;28;20100;-75
2023/08/14 10:10:30;;;;;;;4.68;1.38;;;;;;;;;;5054243;28;20029;-75
2023/08/14 10:12:57;;;;;;;2.30;0.90;;;;;;;;;;5054034;28;20070;-75
2023/08/14 10:15:28;;;;;;;1.63;0.82;;;;;;;;;;5054348;28;20033;-75
2023/08/14 10:17:58;;;;;;;2.53;0.95;;;;;;;;;;5054462;28;20029;-75
2023/08/14 10:20:25;;;;;;;4.07;1.20;;;;;;;;;;5054667;28;20475;-75
2023/08/14 10:22:52;;;;;;;1.85;1.10;;;;;;;;;;5054215;28;20017;-75
2023/08/14 10:25:19;;;;;;;2.58;1.00;;;;;;;;;;5054029;28;20075;-74
2023/08/14 10:27:46;;;;;;;3.92;1.45;;;;;;;;;;5054174;28;20025;-74
2023/08/14 10:30:12;;;;;;;4.72;1.80;;;;;;;;;;5053945;28;20052;-75
2023/08/14 10:32:40;;;;;;;3.47;1.80;;;;;;;;;;5053655;28;20117;-75
2023/08/14 10:35:08;;;;;;;2.40;1.23;;;;;;;;;;5054087;28;20025;-74
2023/08/14 10:37:47;;;;;;;0.95;0.80;;;;;;;;;;5054550;28;20029;-74
2023/08/14 10:40:20;;;;;;;2.00;0.85;;;;;;;;;;5041351;28;20024;-75
2023/08/14 10:42:47;;;;;;;2.58;0.98;;;;;;;;;;5053757;28;20498;-75
2023/08/14 10:45:16;;;;;;;2.35;1.00;;;;;;;;;;5053779;28;20048;-75
2023/08/14 10:47:43;;;;;;;1.85;1.20;;;;;;;;;;5053617;28;20013;-75
2023/08/14 10:50:19;;;;;;;2.92;1.00;;;;;;;;;;5054318;28;20491;-75
2023/08/14 10:52:46;;;;;;;3.30;1.02;;;;;;;;;;5053242;28;20039;-75
2023/08/14 10:55:16;;;;;;;4.70;0.98;;;;;;;;;;5053630;28;20108;-75
2023/08/14 10:57:42;;;;;;;2.65;1.13;;;;;;;;;;5053356;28;20025;-75
2023/08/14 11:00:20;;;;;;;1.83;0.70;;;;;;;;;;5053546;28;20039;-75
2023/08/14 11:02:50;;;;;;;3.05;0.90;;;;;;;;;;5053861;28;20051;-75
2023/08/14 11:05:17;;;;;;;3.05;0.98;;;;;;;;;;5057936;28;20020;-74
2023/08/14 11:07:56;;;;;;;3.22;1.10;;;;;;;;;;5053630;28;20497;-75
2023/08/14 11:10:24;;;;;;;3.75;1.10;;;;;;;;;;5053465;28;20082;-75
2023/08/14 11:12:50;;;;;;;1.40;0.80;;;;;;;;;;5052121;28;20029;-75
2023/08/14 11:15:16;;;;;;;2.58;1.05;;;;;;;;;;5053272;28;20146;-75
2023/08/14 11:17:43;;;;;;;3.80;0.93;;;;;;;;;;5053229;28;20367;-75
2023/08/14 11:20:12;;;;;;;3.08;0.90;;;;;;;;;;5053234;28;20044;-75
2023/08/14 11:22:38;;;;;;;2.00;0.90;;;;;;;;;;5053026;28;20455;-75
2023/08/14 11:25:05;;;;;;;2.22;1.00;;;;;;;;;;5052937;28;20071;-74
2023/08/14 11:27:31;;;;;;;3.47;1.10;;;;;;;;;;5052821;28;20802;-75
2023/08/14 11:29:57;;;;;;;2.10;0.95;;;;;;;;;;5053105;28;20052;-74
2023/08/14 11:32:23;;;;;;;2.33;0.90;;;;;;;;;;5051989;28;20076;-74
2023/08/14 11:34:50;;;;;;;2.28;0.90;;;;;;;;;;5052903;28;20035;-74
2023/08/14 11:37:16;;;;;;;3.47;1.13;;;;;;;;;;5053048;28;20075;-74
2023/08/14 11:39:42;;;;;;;1.88;0.90;;;;;;;;;;5052792;28;20692;-74
2023/08/14 11:42:11;;;;;;;4.00;1.08;;;;;;;;;;5053131;28;20082;-74
2023/08/14 11:44:37;;;;;;;3.80;1.10;;;;;;;;;;5052687;28;20144;-74
2023/08/14 11:47:06;;;;;;;2.72;0.90;;;;;;;;;;5052973;28;20610;-74
2023/08/14 11:49:34;;;;;;;2.35;0.90;;;;;;;;;;5053245;28;20497;-74
2023/08/14 11:52:03;;;;;;;1.88;0.90;;;;;;;;;;5052845;28;20017;-74
2023/08/14 11:54:29;;;;;;;2.78;0.93;;;;;;;;;;5052607;28;20028;-74
2023/08/14 11:56:55;;;;;;;2.83;1.30;;;;;;;;;;5052568;28;20029;-74
2023/08/14 11:59:21;;;;;;;2.97;1.27;;;;;;;;;;5035557;28;20038;-74
2023/08/14 12:01:47;;;;;;;3.10;1.10;;;;;;;;;;5052619;28;20048;-74
2023/08/14 12:04:13;;;;;;;1.75;0.90;;;;;;;;;;5051164;28;20033;-74
2023/08/14 12:06:39;;;;;;;1.85;1.00;;;;;;;;;;5052433;28;20074;-74
2023/08/14 12:09:10;;;;;;;2.75;1.00;;;;;;;;;;5052266;28;20100;-74
2023/08/14 12:11:36;;;;;;;3.83;1.27;;;;;;;;;;5049919;28;20639;-74
2023/08/14 12:14:06;;;;;;;3.50;1.55;;;;;;;;;;5051798;28;20017;-74
2023/08/14 12:16:32;;;;;;;2.53;1.40;;;;;;;;;;5048955;28;20018;-74
2023/08/14 12:18:58;;;;;;;2.15;1.10;;;;;;;;;;5041874;28;20575;-74
2023/08/14 12:21:27;;;;;;;1.95;1.30;;;;;;;;;;5052085;28;20021;-74
2023/08/14 12:23:53;;;;;;;;;;;;;;;;;;5042513;28;20033;-74
2023/08/14 12:26:19;;;;;;;4.45;2.00;;;;;;;;;;5038159;28;19909;-74
2023/08/14 12:28:45;;;;;;;1.90;1.30;;;;;;;;;;5051795;28;20098;-73
2023/08/14 12:31:13;;;;;;;2.50;1.40;;;;;;;;;;5051366;28;20049;-73
2023/08/14 12:33:41;;;;;;;5.30;1.77;;;;;;;;;;5045745;28;20494;-73
2023/08/14 12:36:07;;;;;;;5.30;1.55;;;;;;;;;;5050970;28;20021;-74
2023/08/14 12:38:33;;;;;;;3.20;1.55;;;;;;;;;;5050789;28;20083;-73
2023/08/14 12:40:59;;;;;;;2.13;1.40;;;;;;;;;;5051779;28;20025;-74
2023/08/14 12:43:25;;;;;;;4.30;1.60;;;;;;;;;;5051655;28;20025;-73
2023/08/14 12:45:50;;;;;;;3.55;1.70;;;;;;;;;;5051332;28;20044;-73
2023/08/14 12:48:17;;;;;;;3.10;1.83;;;;;;;;;;5038189;28;20025;-73
2023/08/14 12:50:43;;;;;;;3.60;1.85;;;;;;;;;;5051542;28;20055;-73
2023/08/14 12:53:16;;;;;;;2.53;1.50;;;;;;;;;;5051352;28;20048;-73
2023/08/14 12:55:42;;;;;;;4.82;1.90;;;;;;;;;;5051539;28;20104;-74
2023/08/14 12:58:08;;;;;;;3.72;1.80;;;;;;;;;;5051265;28;20468;-74
2023/08/14 13:00:34;;;;;;;6.47;2.10;;;;;;;;;;5051035;28;20025;-74
2023/08/14 13:03:00;;;;;;;3.88;1.67;;;;;;;;;;5050864;28;20067;-73
2023/08/14 13:05:26;;;;;;;3.95;1.70;;;;;;;;;;5038123;28;20056;-74
2023/08/14 13:07:52;;;;;;;4.63;1.90;;;;;;;;;;5050837;28;20109;-74
2023/08/14 13:10:18;;;;;;;4.35;1.90;;;;;;;;;;5038110;28;20033;-74
2023/08/14 13:12:44;;;;;;;3.80;1.80;;;;;;;;;;5044527;28;20036;-74
2023/08/14 13:15:10;;;;;;;7.75;2.50;;;;;;;;;;5049591;28;20036;-74
2023/08/14 13:17:36;;;;;;;2.85;1.80;;;;;;;;;;5051060;28;20108;-73
2023/08/14 13:20:02;;;;;;;3.58;1.90;;;;;;;;;;5051103;28;20025;-74
2023/08/14 13:22:28;;;;;;;4.32;2.10;;;;;;;;;;5051139;28;20436;-74
2023/08/14 13:24:54;;;;;;;5.43;2.20;;;;;;;;;;5050930;28;20044;-74
2023/08/14 13:27:20;;;;;;;4.63;2.17;;;;;;;;;;5050750;28;20071;-73
2023/08/14 13:29:46;;;;;;;4.72;2.13;;;;;;;;;;5051010;28;20129;-73
2023/08/14 13:32:12;;;;;;;3.28;2.00;;;;;;;;;;5042980;28;20042;-74
2023/08/14 13:34:38;;;;;;;5.97;2.10;;;;;;;;;;5031519;28;20103;-74
2023/08/14 13:37:04;;;;;;;5.47;2.63;;;;;;;;;;5050645;28;20092;-73
2023/08/14 13:39:30;;;;;;;3.50;1.90;;;;;;;;;;5050831;28;20065;-73
2023/08/14 13:41:56;;;;;;;5.88;2.50;;;;;;;;;;5051381;28;20106;-74
2023/08/14 13:44:22;;;;;;;6.25;2.10;;;;;;;;;;5037431;28;20170;-74
2023/08/14 13:46:48;;;;;;;7.05;2.40;;;;;;;;;;5051162;28;20032;-73
2023/08/14 13:49:15;;;;;;;3.13;2.40;;;;;;;;;;5050340;28;20025;-73
2023/08/14 13:51:48;;;;;;;5.03;2.40;;;;;;;;;;5050862;28;20024;-73
2023/08/14 13:54:14;;;;;;;5.50;2.40;;;;;;;;;;5050789;28;20104;-74
2023/08/14 13:56:40;;;;;;;5.85;2.63;;;;;;;;;;5050803;28;20102;-74
2023/08/14 13:59:06;;;;;;;6.47;2.50;;;;;;;;;;5050677;28;20060;-74
2023/08/14 14:01:32;;;;;;;4.32;2.30;;;;;;;;;;5050727;28;20029;-74
2023/08/14 14:03:58;;;;;;;5.32;2.88;;;;;;;;;;5050596;28;20029;-74
2023/08/14 14:06:25;;;;;;;7.28;2.33;;;;;;;;;;5050733;28;20029;-74
2023/08/14 14:08:51;;;;;;;6.47;2.85;;;;;;;;;;5050784;28;20022;-74
2023/08/14 14:11:17;;;;;;;6.03;2.63;;;;;;;;;;5050505;28;20043;-74
2023/08/14 14:13:43;;;;;;;5.20;2.85;;;;;;;;;;5050734;28;20036;-74
2023/08/14 14:16:10;;;;;;;5.35;2.50;;;;;;;;;;5050710;28;20032;-74
2023/08/14 14:18:36;;;;;;;6.15;2.60;;;;;;;;;;5050331;28;20083;-74
2023/08/14 14:21:02;;;;;;;5.55;3.40;;;;;;;;;;5050637;28;20025;-74
2023/08/14 14:23:28;;;;;;;3.35;2.60;;;;;;;;;;5050666;28;20025;-74
2023/08/14 14:25:54;;;;;;;6.68;2.75;;;;;;;;;;5050581;28;20033;-74
2023/08/14 14:28:20;;;;;;;5.97;3.00;;;;;;;;;;5054017;28;20094;-74
2023/08/14 14:30:46;;;;;;;5.15;2.90;;;;;;;;;;5052700;28;20029;-74
2023/08/14 14:33:12;;;;;;;6.20;2.70;;;;;;;;;;5054230;28;20040;-74
2023/08/14 14:35:38;;;;;;;5.53;2.85;;;;;;;;;;5054129;28;20470;-74
2023/08/14 14:38:04;;;;;;;5.22;2.90;;;;;;;;;;5054312;28;20460;-73